Time;durP1;ratioP1;P1;durP2;ratioP2;P2;SDS_P1;SDS_P2;PMS_P1;PMS_P2;Temp;Humidity;BMP_temperature;BMP_pressure;BME280_temperature;BME280_humidity;BME280_pressure;Samples;Min_cycle;Max_cycle;Signal;HPM_P1;HPM_P2
2023/03/21 00:00:44;;;;;;;17.40;9.53;;;;;;;6.20;100.00;100912.28;4995492;28;20046;-81
2023/03/21 00:03:11;;;;;;;14.70;7.50;;;;;;;6.15;100.00;100911.44;4988333;28;20050;-80
2023/03/21 00:05:40;;;;;;;14.90;8.50;;;;;;;6.15;100.00;100906.19;4972474;28;20058;-80
2023/03/21 00:08:08;;;;;;;16.20;10.00;;;;;;;6.17;100.00;100915.81;4998318;28;20125;-81
2023/03/21 00:10:35;;;;;;;13.10;8.40;;;;;;;6.14;100.00;100910.56;4968861;28;20110;-80
2023/03/21 00:13:14;;;;;;;15.40;8.93;;;;;;;6.11;100.00;100910.53;4979896;28;20038;-80
2023/03/21 00:15:53;;;;;;;15.90;8.37;;;;;;;6.10;100.00;100908.78;5000366;28;20109;-81
2023/03/21 00:18:45;;;;;;;12.50;8.10;;;;;;;6.10;100.00;100910.53;4987324;28;20110;-79
2023/03/21 00:21:16;;;;;;;17.02;9.32;;;;;;;6.12;100.00;100916.66;4965157;28;20047;-81
2023/03/21 00:24:05;;;;;;;15.77;7.80;;;;;;;6.12;100.00;100907.03;4982005;28;20083;-81
2023/03/21 00:26:32;;;;;;;16.97;8.73;;;;;;;6.14;100.00;100900.06;4972767;28;20047;-79
2023/03/21 00:28:59;;;;;;;17.03;9.00;;;;;;;6.14;100.00;100902.69;4976128;28;20050;-81
2023/03/21 00:31:26;;;;;;;14.60;8.47;;;;;;;6.13;100.00;100906.16;4976655;28;20058;-79
2023/03/21 00:33:52;;;;;;;14.17;7.83;;;;;;;6.08;100.00;100904.41;4998270;28;20047;-82
2023/03/21 00:36:20;;;;;;;14.97;8.90;;;;;;;6.06;100.00;100907.06;4979590;28;20038;-79
2023/03/21 00:38:47;;;;;;;13.13;7.53;;;;;;;6.04;100.00;100900.03;4990942;28;20042;-81
2023/03/21 00:41:13;;;;;;;13.40;7.83;;;;;;;6.01;100.00;100900.03;4983376;28;20042;-80
2023/03/21 00:44:00;;;;;;;13.23;7.93;;;;;;;6.01;100.00;100895.66;4982918;28;20042;-81
2023/03/21 00:46:27;;;;;;;15.70;8.17;;;;;;;5.99;100.00;100886.91;4977230;28;20038;-80
2023/03/21 00:49:08;;;;;;;13.27;8.23;;;;;;;5.98;100.00;100882.56;4983761;28;20127;-80
2023/03/21 00:51:35;;;;;;;12.50;7.93;;;;;;;6.01;100.00;100890.41;4980140;28;20125;-79
2023/03/21 00:54:04;;;;;;;11.90;7.60;;;;;;;6.03;100.00;100890.41;4980145;28;20122;-80
2023/03/21 00:56:31;;;;;;;13.70;7.93;;;;;;;5.95;100.00;100885.16;4999807;28;20105;-80
2023/03/21 00:58:58;;;;;;;14.87;7.67;;;;;;;5.94;100.00;100886.03;4981742;28;20062;-79
2023/03/21 01:01:25;;;;;;;14.83;8.33;;;;;;;5.97;100.00;100883.44;4995766;28;20053;-80
2023/03/21 01:04:01;;;;;;;12.23;7.73;;;;;;;5.90;100.00;100884.25;4987354;28;20040;-80
2023/03/21 01:06:28;;;;;;;13.70;7.37;;;;;;;5.86;100.00;100872.88;5001960;28;20042;-80
2023/03/21 01:08:55;;;;;;;12.43;7.90;;;;;;;5.84;100.00;100873.75;4983207;28;20071;-80
2023/03/21 01:11:24;;;;;;;13.47;8.10;;;;;;;5.88;100.00;100871.09;4980265;28;20045;-80
2023/03/21 01:13:51;;;;;;;15.97;7.20;;;;;;;5.85;100.00;100873.75;4982851;28;20074;-79
2023/03/21 01:16:33;;;;;;;13.13;8.43;;;;;;;5.82;100.00;100868.50;5000332;28;20038;-80
2023/03/21 01:19:00;;;;;;;16.00;8.53;;;;;;;5.81;100.00;100866.75;4993548;28;20554;-80
2023/03/21 01:21:32;;;;;;;13.53;8.07;;;;;;;5.83;100.00;100872.00;4986377;28;20062;-80
2023/03/21 01:24:00;;;;;;;14.33;8.20;;;;;;;5.87;100.00;100876.34;5002401;28;20046;-82
2023/03/21 01:26:27;;;;;;;13.50;8.03;;;;;;;5.81;100.00;100871.13;4982526;28;20043;-80
2023/03/21 01:28:54;;;;;;;14.97;8.07;;;;;;;5.80;100.00;100878.13;5004362;28;20038;-81
2023/03/21 01:31:23;;;;;;;14.33;7.70;;;;;;;5.83;100.00;100877.25;4989533;28;20077;-81
2023/03/21 01:33:50;;;;;;;14.07;8.27;;;;;;;5.81;100.00;100879.00;4974986;28;20053;-81
2023/03/21 01:36:20;;;;;;;10.73;7.33;;;;;;;5.79;100.00;100875.47;4990407;28;20065;-81
2023/03/21 01:38:50;;;;;;;11.73;7.97;;;;;;;5.79;100.00;100878.09;4970170;28;20071;-81
2023/03/21 01:41:27;;;;;;;13.93;8.47;;;;;;;5.77;100.00;100874.59;5009124;28;20042;-81
2023/03/21 01:44:06;;;;;;;12.97;7.33;;;;;;;5.75;100.00;100882.47;4993540;28;20050;-81
2023/03/21 01:46:43;;;;;;;15.67;8.50;;;;;;;5.81;100.00;100877.25;4989618;23;20042;-76
2023/03/21 01:49:33;;;;;;;14.77;8.07;;;;;;;5.82;100.00;100886.84;4989983;28;20034;-76
2023/03/21 01:52:03;;;;;;;11.93;7.53;;;;;;;5.77;100.00;100882.47;4973326;28;20046;-76
2023/03/21 01:54:41;;;;;;;11.93;7.10;;;;;;;5.75;100.00;100878.97;4961873;28;20046;-76
2023/03/21 01:57:12;;;;;;;13.63;8.07;;;;;;;5.76;100.00;100880.72;4987886;28;20035;-76
2023/03/21 01:59:44;;;;;;;13.93;8.40;;;;;;;5.76;100.00;100878.09;4991435;28;20057;-76
2023/03/21 02:02:16;;;;;;;12.97;8.80;;;;;;;5.75;100.00;100884.22;4959360;28;20049;-76
2023/03/21 02:04:54;;;;;;;14.83;7.00;;;;;;;5.71;100.00;100883.31;4953142;28;20462;-77
2023/03/21 02:07:28;;;;;;;14.23;8.93;;;;;;;5.69;100.00;100884.19;4958815;28;20134;-76
2023/03/21 02:09:55;;;;;;;13.38;8.77;;;;;;;5.70;100.00;100872.81;4970750;28;20049;-77
2023/03/21 02:12:22;;;;;;;12.40;7.23;;;;;;;5.67;100.00;100878.06;4989477;28;20038;-76
2023/03/21 02:14:50;;;;;;;14.93;7.50;;;;;;;5.72;100.00;100868.44;4954670;28;20047;-76
2023/03/21 02:17:44;;;;;;;11.53;7.67;;;;;;;5.72;100.00;100884.19;4971685;28;20049;-76
2023/03/21 02:20:30;;;;;;;13.53;7.83;;;;;;;5.73;100.00;100875.47;4989446;28;20479;-76
2023/03/21 02:23:35;;;;;;;16.03;7.70;;;;;;;5.78;100.00;100874.59;4959160;28;20046;-76
2023/03/21 02:26:33;;;;;;;12.88;7.80;;;;;;;5.75;100.00;100874.59;4969683;28;20149;-76
2023/03/21 02:29:11;;;;;;;12.17;6.97;;;;;;;5.61;100.00;100878.91;4963814;28;20054;-76
2023/03/21 02:31:45;;;;;;;12.80;8.27;;;;;;;5.63;100.00;100871.91;4990271;28;20077;-77
2023/03/21 02:34:37;;;;;;;13.23;8.25;;;;;;;5.66;100.00;100874.56;4956601;28;20579;-76
2023/03/21 02:37:05;;;;;;;16.77;7.87;;;;;;;5.52;100.00;100879.75;4956302;28;20042;-77
2023/03/21 02:39:46;;;;;;;11.53;7.93;;;;;;;5.46;100.00;100871.88;4959825;28;20038;-76
2023/03/21 02:42:40;;;;;;;12.50;7.70;;;;;;;5.45;100.00;100880.59;4990746;28;20044;-76
2023/03/21 02:45:16;;;;;;;12.27;7.33;;;;;;;5.44;100.00;100884.09;4968166;28;20031;-77
2023/03/21 02:47:46;;;;;;;12.30;7.95;;;;;;;5.45;100.00;100871.88;4971496;28;20043;-76
2023/03/21 02:50:23;;;;;;;12.60;7.40;;;;;;;5.45;100.00;100880.59;4986955;28;20042;-76
2023/03/21 02:52:51;;;;;;;13.87;7.97;;;;;;;5.45;100.00;100875.34;4955528;28;20046;-77
2023/03/21 02:55:22;;;;;;;12.57;8.00;;;;;;;5.47;100.00;100878.88;4965557;28;20057;-75
2023/03/21 02:57:50;;;;;;;14.03;7.80;;;;;;;5.51;100.00;100878.00;4988402;28;20058;-76
2023/03/21 03:00:21;;;;;;;12.80;8.17;;;;;;;5.51;100.00;100877.13;4990911;28;20046;-76
2023/03/21 03:02:49;;;;;;;14.30;8.47;;;;;;;5.53;100.00;100875.38;4986470;28;20038;-76
2023/03/21 03:05:27;;;;;;;13.90;8.17;;;;;;;5.53;100.00;100884.13;4969293;28;20070;-75
2023/03/21 03:08:13;;;;;;;13.77;7.70;;;;;;;5.53;100.00;100881.50;4964320;28;20501;-77
2023/03/21 03:10:49;;;;;;;13.00;8.37;;;;;;;5.58;100.00;100886.78;4983991;28;20088;-78
2023/03/21 03:13:38;;;;;;;12.87;8.27;;;;;;;5.57;100.00;100888.53;4984254;28;20065;-77
2023/03/21 03:16:18;;;;;;;13.70;7.23;;;;;;;5.62;100.00;100889.41;4999866;28;20034;-78
2023/03/21 03:18:50;;;;;;;13.73;7.77;;;;;;;5.60;100.00;100892.88;4976302;28;20038;-77
2023/03/21 03:21:23;;;;;;;11.67;8.00;;;;;;;5.55;100.00;100886.75;4964962;28;20419;-77
2023/03/21 03:24:00;;;;;;;11.33;7.73;;;;;;;5.55;100.00;100885.03;4976230;28;20133;-78
2023/03/21 03:26:38;;;;;;;13.00;7.57;;;;;;;5.55;100.00;100887.66;4975412;28;20041;-78
2023/03/21 03:29:09;;;;;;;10.77;7.17;;;;;;;5.53;100.00;100888.50;4956826;28;20042;-77
2023/03/21 03:31:38;;;;;;;13.33;7.33;;;;;;;5.54;100.00;100885.88;4948160;28;20448;-78
2023/03/21 03:34:12;;;;;;;9.97;7.37;;;;;;;5.54;100.00;100885.88;4971842;28;20053;-78
2023/03/21 03:36:41;;;;;;;11.85;7.43;;;;;;;5.57;100.00;100885.03;4963081;28;20038;-77
2023/03/21 03:39:10;;;;;;;11.93;7.60;;;;;;;5.59;100.00;100886.78;4957713;28;20050;-78
2023/03/21 03:42:06;;;;;;;12.00;7.47;;;;;;;5.59;100.00;100894.63;4963008;28;20344;-77
2023/03/21 03:44:52;;;;;;;10.70;7.28;;;;;;;5.57;100.00;100888.53;4977293;28;20066;-78
2023/03/21 03:47:32;;;;;;;11.77;7.30;;;;;;;5.59;100.00;100884.16;4965557;28;20121;-77
2023/03/21 03:50:16;;;;;;;10.93;7.27;;;;;;;5.59;100.00;100883.28;4973711;28;20050;-77
2023/03/21 03:52:48;;;;;;;12.93;8.07;;;;;;;5.61;100.00;100881.53;4970964;28;20034;-76
2023/03/21 03:55:25;;;;;;;11.57;7.30;;;;;;;5.61;100.00;100882.41;4957584;28;20042;-77
2023/03/21 03:57:53;;;;;;;13.80;6.93;;;;;;;5.64;100.00;100889.44;4957771;28;20555;-77
2023/03/21 04:00:20;;;;;;;13.70;7.10;;;;;;;5.64;100.00;100887.69;4974379;28;20045;-78
2023/03/21 04:02:47;;;;;;;12.60;7.60;;;;;;;5.63;100.00;100891.19;4980154;28;20408;-78
2023/03/21 04:05:19;;;;;;;11.37;7.70;;;;;;;5.63;100.00;100885.03;4954839;28;20446;-77
2023/03/21 04:07:50;;;;;;;11.53;7.43;;;;;;;5.63;100.00;100883.31;4964797;28;20547;-78
2023/03/21 04:10:17;;;;;;;10.57;6.93;;;;;;;5.66;100.00;100885.06;4983617;28;20399;-78
2023/03/21 04:12:44;;;;;;;12.37;8.27;;;;;;;5.65;100.00;100884.19;4989096;28;20052;-77
2023/03/21 04:15:11;;;;;;;12.23;7.23;;;;;;;5.67;100.00;100881.56;4990649;28;20042;-79
2023/03/21 04:17:38;;;;;;;12.23;7.63;;;;;;;5.68;100.00;100887.69;4982296;28;20496;-78
2023/03/21 04:20:06;;;;;;;10.97;6.87;;;;;;;5.69;100.00;100889.44;4973213;28;20042;-78
2023/03/21 04:22:40;;;;;;;9.17;6.60;;;;;;;5.70;100.00;100886.81;4955986;28;20043;-78
2023/03/21 04:25:08;;;;;;;12.73;7.70;;;;;;;5.69;100.00;100865.84;4986971;28;20096;-77
2023/03/21 04:27:35;;;;;;;13.10;7.50;;;;;;;5.71;100.00;100872.81;4970026;28;20038;-78
2023/03/21 04:30:02;;;;;;;14.90;6.97;;;;;;;5.71;100.00;100871.94;4953777;28;20043;-78
2023/03/21 04:32:32;;;;;;;10.30;6.30;;;;;;;5.70;100.00;100867.56;4962265;28;20050;-78
2023/03/21 04:34:59;;;;;;;12.07;6.80;;;;;;;5.70;100.00;100878.94;4954626;28;20527;-77
2023/03/21 04:37:26;;;;;;;15.17;7.50;;;;;;;5.70;100.00;100868.44;4975342;28;20399;-77
2023/03/21 04:39:53;;;;;;;11.37;7.57;;;;;;;5.70;100.00;100864.97;4976352;28;20101;-77
2023/03/21 04:42:20;;;;;;;11.67;7.33;;;;;;;5.73;100.00;100859.75;4975449;28;20438;-77
2023/03/21 04:44:48;;;;;;;9.80;6.47;;;;;;;5.70;100.00;100871.06;4964261;28;20408;-78
2023/03/21 04:47:19;;;;;;;11.77;7.90;;;;;;;5.73;100.00;100870.22;4977723;28;20069;-78
2023/03/21 04:49:48;;;;;;;14.07;9.00;;;;;;;5.72;100.00;100868.44;4951293;28;20050;-77
2023/03/21 04:52:15;;;;;;;14.07;8.70;;;;;;;5.67;100.00;100876.31;4984685;28;20407;-78
2023/03/21 04:54:42;;;;;;;14.70;8.97;;;;;;;5.67;100.00;100878.06;4978688;28;20039;-78
2023/03/21 04:57:09;;;;;;;17.13;9.47;;;;;;;5.67;100.00;100885.94;4983316;28;20039;-77
2023/03/21 04:59:36;;;;;;;14.33;8.37;;;;;;;5.65;100.00;100881.56;4970316;28;20126;-78
2023/03/21 05:02:02;;;;;;;13.00;8.17;;;;;;;5.64;100.00;100882.44;4982970;28;20050;-78
2023/03/21 05:04:29;;;;;;;14.07;8.47;;;;;;;5.64;100.00;100881.56;4986493;28;20034;-78
2023/03/21 05:06:56;;;;;;;15.07;8.03;;;;;;;5.65;100.00;100883.31;4970925;28;20525;-77
2023/03/21 05:09:23;;;;;;;12.73;8.33;;;;;;;5.68;100.00;100877.19;4991358;28;20046;-77
2023/03/21 05:11:50;;;;;;;12.33;7.90;;;;;;;5.62;100.00;100884.16;4969961;28;20046;-77
2023/03/21 05:14:20;;;;;;;12.20;8.10;;;;;;;5.67;100.00;100884.19;4971971;28;20047;-77
2023/03/21 05:16:51;;;;;;;17.30;8.80;;;;;;;5.64;100.00;100892.06;4970977;28;20035;-77
2023/03/21 05:19:21;;;;;;;14.37;8.67;;;;;;;5.62;100.00;100896.38;4968396;28;20156;-77
2023/03/21 05:21:48;;;;;;;11.00;7.03;;;;;;;5.59;100.00;100891.16;4955939;28;20406;-78
2023/03/21 05:24:18;;;;;;;12.40;7.63;;;;;;;5.60;100.00;100891.16;4972448;28;20035;-78
2023/03/21 05:26:54;;;;;;;12.23;8.17;;;;;;;5.68;100.00;100891.16;4976518;28;20038;-77
2023/03/21 05:29:21;;;;;;;10.40;7.37;;;;;;;5.67;100.00;100891.19;4971820;28;20049;-78
2023/03/21 05:31:48;;;;;;;14.50;7.83;;;;;;;5.67;100.00;100894.66;4991940;28;20487;-77
2023/03/21 05:34:15;;;;;;;11.43;7.20;;;;;;;5.62;100.00;100891.16;4986046;28;20729;-78
2023/03/21 05:36:41;;;;;;;11.70;7.07;;;;;;;5.62;100.00;100894.63;4984645;28;20117;-77
2023/03/21 05:39:08;;;;;;;11.40;7.33;;;;;;;5.65;100.00;100894.66;4967929;28;20495;-76
2023/03/21 05:41:38;;;;;;;15.27;8.87;;;;;;;5.63;100.00;100896.41;4970233;28;20145;-77
2023/03/21 05:44:04;;;;;;;11.43;7.10;;;;;;;5.68;100.00;100885.94;4992191;28;20518;-77
2023/03/21 05:46:31;;;;;;;10.60;7.13;;;;;;;5.69;100.00;100890.28;4979790;28;20030;-77
2023/03/21 05:48:57;;;;;;;15.57;7.60;;;;;;;5.71;100.00;100887.69;4982905;28;20094;-78
2023/03/21 05:51:24;;;;;;;10.00;6.40;;;;;;;5.75;100.00;100881.59;4956289;28;20073;-77
2023/03/21 05:53:51;;;;;;;12.07;6.63;;;;;;;5.78;100.00;100878.97;4973645;28;20047;-77
2023/03/21 05:56:20;;;;;;;8.83;6.27;;;;;;;5.82;100.00;100871.13;4967242;28;20502;-78
2023/03/21 05:58:46;;;;;;;12.03;7.30;;;;;;;5.94;100.00;100880.78;4968696;28;20045;-78
2023/03/21 06:01:13;;;;;;;9.87;6.77;;;;;;;5.97;100.00;100878.19;4958381;28;20530;-77
2023/03/21 06:03:40;;;;;;;11.00;6.90;;;;;;;6.00;100.00;100877.31;4989331;28;20558;-77
2023/03/21 06:06:07;;;;;;;11.33;7.33;;;;;;;6.02;100.00;100878.19;4987286;28;20053;-76
2023/03/21 06:08:36;;;;;;;10.53;7.30;;;;;;;6.02;100.00;100871.19;4990202;28;20038;-78
2023/03/21 06:11:03;;;;;;;15.77;8.33;;;;;;;6.04;100.00;100882.53;4949363;28;20047;-77
2023/03/21 06:13:31;;;;;;;12.63;8.50;;;;;;;6.09;100.00;100878.19;4956825;28;20048;-77
2023/03/21 06:15:58;;;;;;;14.23;8.67;;;;;;;6.13;100.00;100885.16;4979203;28;20074;-76
2023/03/21 06:18:25;;;;;;;12.20;7.67;;;;;;;6.18;100.00;100882.56;4977018;28;20045;-77
2023/03/21 06:20:53;;;;;;;14.77;8.67;;;;;;;6.27;100.00;100879.94;4987286;28;20035;-77
2023/03/21 06:23:19;;;;;;;14.53;8.33;;;;;;;6.38;100.00;100885.19;4991076;28;20154;-77
2023/03/21 06:25:47;;;;;;;15.43;9.93;;;;;;;6.55;100.00;100885.19;4991594;28;20039;-76
2023/03/21 06:28:15;;;;;;;19.33;12.73;;;;;;;6.72;100.00;100881.66;4988370;28;20093;-77
2023/03/21 06:30:41;;;;;;;25.17;14.80;;;;;;;6.91;100.00;100882.53;4972035;28;20389;-76
2023/03/21 06:33:08;;;;;;;31.60;17.93;;;;;;;7.07;100.00;100883.38;4965269;28;20056;-77
2023/03/21 06:35:35;;;;;;;28.23;17.60;;;;;;;7.14;100.00;100882.47;4988970;28;20041;-77
2023/03/21 06:38:02;;;;;;;32.30;16.97;;;;;;;7.18;100.00;100880.72;4987116;28;20387;-77
2023/03/21 06:40:29;;;;;;;31.50;17.53;;;;;;;7.24;100.00;100881.59;4959233;28;20423;-77
2023/03/21 06:42:56;;;;;;;34.97;21.83;;;;;;;7.28;100.00;100883.31;4967658;28;20566;-76
2023/03/21 06:45:24;;;;;;;34.07;20.00;;;;;;;7.38;100.00;100891.16;4987207;28;20101;-77
2023/03/21 06:47:50;;;;;;;33.30;20.27;;;;;;;7.38;100.00;100892.03;4999983;28;20035;-77
2023/03/21 06:50:17;;;;;;;37.90;20.50;;;;;;;7.37;100.00;100900.78;4986557;28;20039;-76
2023/03/21 06:52:44;;;;;;;32.67;20.07;;;;;;;7.41;100.00;100896.41;4973780;28;20042;-75
2023/03/21 06:55:11;;;;;;;38.77;21.97;;;;;;;7.41;100.00;100901.69;5059541;23;20039;-75
2023/03/21 06:57:37;;;;;;;37.70;21.57;;;;;;;7.41;100.00;100906.94;4967812;28;20042;-75
2023/03/21 07:00:07;;;;;;;39.00;21.70;;;;;;;7.49;100.00;100905.16;4970416;28;20439;-75
2023/03/21 07:02:33;;;;;;;39.07;21.60;;;;;;;7.56;100.00;100904.22;4969515;28;20039;-76
2023/03/21 07:05:00;;;;;;;35.63;20.43;;;;;;;7.43;100.00;100902.53;4969282;28;20133;-76
2023/03/21 07:07:28;;;;;;;38.07;20.73;;;;;;;7.43;100.00;100907.78;4953471;28;20037;-76
2023/03/21 07:09:55;;;;;;;42.10;22.23;;;;;;;7.39;100.00;100913.94;4955568;28;20053;-76
2023/03/21 07:12:22;;;;;;;37.83;21.10;;;;;;;7.34;100.00;100903.44;4954883;28;20038;-75
2023/03/21 07:14:49;;;;;;;33.47;19.20;;;;;;;7.32;100.00;100910.47;4954971;28;20146;-76
2023/03/21 07:17:16;;;;;;;40.63;22.67;;;;;;;7.46;100.00;100911.28;4972313;28;20035;-75
2023/03/21 07:19:42;;;;;;;40.57;22.37;;;;;;;7.43;100.00;100910.41;4970843;28;20038;-76
2023/03/21 07:22:10;;;;;;;40.83;21.93;;;;;;;7.45;100.00;100908.66;4954078;28;20072;-75
2023/03/21 07:24:37;;;;;;;39.07;21.13;;;;;;;7.45;100.00;100904.28;4970466;28;20550;-76
2023/03/21 07:27:03;;;;;;;41.10;21.10;;;;;;;7.51;100.00;100913.91;4986293;28;20101;-76
2023/03/21 07:29:30;;;;;;;35.20;20.47;;;;;;;7.51;100.00;100914.78;4969154;28;20042;-76
2023/03/21 07:31:56;;;;;;;35.73;20.47;;;;;;;7.66;100.00;100912.97;4970121;28;20051;-76
2023/03/21 07:34:23;;;;;;;42.30;22.87;;;;;;;7.68;100.00;100911.19;4953860;28;20094;-76
2023/03/21 07:36:50;;;;;;;38.57;21.20;;;;;;;7.65;100.00;100917.34;4964591;28;20043;-76
2023/03/21 07:39:19;;;;;;;42.37;23.63;;;;;;;7.69;100.00;100910.31;4954545;28;20411;-76
2023/03/21 07:41:46;;;;;;;34.70;19.90;;;;;;;7.71;100.00;100914.69;4954111;28;20035;-76
2023/03/21 07:44:12;;;;;;;39.13;20.83;;;;;;;7.69;100.00;100913.81;4986115;28;20105;-76
2023/03/21 07:46:39;;;;;;;40.17;20.77;;;;;;;7.71;100.00;100911.16;4970803;28;20138;-76
2023/03/21 07:49:07;;;;;;;42.80;23.33;;;;;;;7.65;100.00;100914.72;4969238;28;20729;-75
2023/03/21 07:51:34;;;;;;;39.87;21.67;;;;;;;7.68;100.00;100914.69;4969921;28;20034;-76
2023/03/21 07:54:01;;;;;;;37.00;20.87;;;;;;;7.74;100.00;100914.69;4969869;28;20104;-76
2023/03/21 07:56:28;;;;;;;38.03;21.73;;;;;;;7.75;100.00;100915.56;4954403;28;20045;-76
2023/03/21 07:58:54;;;;;;;40.93;21.93;;;;;;;7.90;100.00;100912.81;4969137;28;20167;-76
2023/03/21 08:01:21;;;;;;;39.93;22.30;;;;;;;7.89;100.00;100909.31;4968297;28;20050;-75
2023/03/21 08:03:50;;;;;;;39.47;21.70;;;;;;;7.88;100.00;100904.94;4967640;28;20053;-76
2023/03/21 08:06:16;;;;;;;39.47;21.90;;;;;;;7.88;100.00;100904.06;4952727;28;20129;-76
2023/03/21 08:08:43;;;;;;;39.77;21.83;;;;;;;7.97;100.00;100904.00;4957858;28;20046;-76
2023/03/21 08:11:10;;;;;;;41.03;22.30;;;;;;;8.01;100.00;100904.88;4954125;28;20055;-76
2023/03/21 08:13:36;;;;;;;35.73;19.50;;;;;;;8.04;100.00;100910.13;4985059;28;20106;-76
2023/03/21 08:16:03;;;;;;;41.93;21.47;;;;;;;8.10;100.00;100912.72;4954082;28;20043;-76
2023/03/21 08:18:30;;;;;;;41.47;22.53;;;;;;;8.12;100.00;100916.22;4954070;28;20043;-76
2023/03/21 08:20:57;;;;;;;37.47;21.00;;;;;;;8.12;100.00;100916.22;4970121;28;20042;-75
2023/03/21 08:23:24;;;;;;;40.97;22.03;;;;;;;8.15;100.00;100906.53;4969332;28;20047;-76
2023/03/21 08:25:52;;;;;;;39.87;21.43;;;;;;;8.10;100.00;100913.59;4970239;28;20045;-75
2023/03/21 08:28:20;;;;;;;40.93;22.33;;;;;;;8.25;100.00;100917.88;4969381;28;20046;-76
2023/03/21 08:30:47;;;;;;;39.00;21.37;;;;;;;8.25;100.00;100917.88;4969645;28;20043;-75
2023/03/21 08:33:14;;;;;;;37.27;21.60;;;;;;;8.22;100.00;100919.66;4969099;28;20600;-76
2023/03/21 08:35:41;;;;;;;39.63;22.37;;;;;;;8.27;100.00;100918.75;4969920;28;20046;-75
2023/03/21 08:38:09;;;;;;;34.53;19.30;;;;;;;8.22;100.00;100914.38;4937694;29;20039;-76
2023/03/21 08:40:35;;;;;;;36.40;20.67;;;;;;;8.25;100.00;100919.66;4951883;28;20039;-76
2023/03/21 08:43:02;;;;;;;38.33;21.23;;;;;;;8.33;100.00;100921.34;4973318;28;20126;-76
2023/03/21 08:45:29;;;;;;;32.87;19.73;;;;;;;8.30;100.00;100918.72;4968881;28;20146;-76
2023/03/21 08:47:56;;;;;;;37.87;20.70;;;;;;;8.31;100.00;100923.09;4953897;28;20046;-76
2023/03/21 08:50:25;;;;;;;36.37;19.60;;;;;;;8.29;100.00;100919.59;4968945;28;20038;-75
2023/03/21 08:52:52;;;;;;;32.20;18.63;;;;;;;8.27;100.00;100918.75;4966614;28;20042;-76
2023/03/21 08:55:19;;;;;;;36.37;19.90;;;;;;;8.28;100.00;100917.84;4969278;28;20063;-76
2023/03/21 08:57:45;;;;;;;42.43;21.73;;;;;;;8.36;100.00;100909.94;4969022;28;20443;-76
2023/03/21 09:00:16;;;;;;;36.03;19.70;;;;;;;8.45;100.00;100910.75;4953722;28;20054;-76
2023/03/21 09:02:43;;;;;;;32.07;18.10;;;;;;;8.48;100.00;100912.47;4968804;28;20125;-76
2023/03/21 09:05:11;;;;;;;32.53;18.63;;;;;;;8.53;100.00;100915.06;4969443;28;20404;-76
2023/03/21 09:07:38;;;;;;;36.67;20.05;;;;;;;8.58;100.00;100915.94;4973527;28;20067;-76
2023/03/21 09:10:07;;;;;;;35.23;19.50;;;;;;;8.59;100.00;100915.03;4957693;28;20153;-76
2023/03/21 09:12:51;;;;;;;36.87;18.87;;;;;;;8.61;100.00;100914.13;4954500;28;20135;-76
2023/03/21 09:15:20;;;;;;;32.20;18.38;;;;;;;8.71;100.00;100918.41;4953287;28;20129;-76
2023/03/21 09:17:51;;;;;;;32.40;17.73;;;;;;;8.73;100.00;100918.41;4953817;28;20035;-75
2023/03/21 09:20:24;;;;;;;31.35;17.67;;;;;;;8.82;100.00;100913.03;4955217;28;20042;-76
2023/03/21 09:22:53;;;;;;;27.67;15.60;;;;;;;8.88;100.00;100918.25;4971989;28;20043;-75
2023/03/21 09:25:20;;;;;;;26.58;14.95;;;;;;;8.93;100.00;100907.69;4972680;28;20042;-76
2023/03/21 09:27:47;;;;;;;25.17;15.52;;;;;;;8.96;100.00;100913.81;4972789;28;20035;-76
2023/03/21 09:30:15;;;;;;;30.95;17.63;;;;;;;9.08;100.00;100909.28;4957117;28;20097;-76
2023/03/21 09:32:47;;;;;;;26.95;15.45;;;;;;;9.12;100.00;100911.88;4964097;28;20486;-75
2023/03/21 09:35:17;;;;;;;22.63;13.10;;;;;;;9.10;100.00;100911.03;4971627;28;20042;-75
2023/03/21 09:37:46;;;;;;;20.65;12.50;;;;;;;9.03;100.00;100911.97;4944114;28;20047;-75
2023/03/21 09:40:51;;;;;;;22.05;13.27;;;;;;;9.08;100.00;100914.56;4984019;28;20045;-75
2023/03/21 09:43:30;;;;;;;24.75;14.73;;;;;;;9.09;100.00;100909.28;4972462;28;20054;-75
2023/03/21 09:46:02;;;;;;;24.98;14.05;;;;;;;9.05;100.00;100910.19;4955813;28;20035;-75
2023/03/21 09:48:35;;;;;;;24.48;13.77;;;;;;;9.16;100.00;100913.59;4971717;28;20043;-75
2023/03/21 09:51:14;;;;;;;23.50;13.30;;;;;;;9.16;100.00;100910.06;4972751;28;20039;-75
2023/03/21 09:53:43;;;;;;;22.95;12.95;;;;;;;9.10;100.00;100907.53;4955725;28;20563;-75
2023/03/21 09:56:14;;;;;;;20.35;12.00;;;;;;;9.10;100.00;100912.81;4955375;28;20105;-75
2023/03/21 09:58:51;;;;;;;20.85;12.48;;;;;;;9.19;100.00;100903.03;4956607;28;20046;-75
2023/03/21 10:01:26;;;;;;;20.58;11.85;;;;;;;9.17;100.00;100909.22;4957080;28;20039;-75
2023/03/21 10:03:55;;;;;;;21.77;12.70;;;;;;;9.15;100.00;100901.28;4956001;28;20043;-74
2023/03/21 10:06:29;;;;;;;20.80;12.50;;;;;;;9.13;100.00;100900.44;4972034;28;20130;-75
2023/03/21 10:09:00;;;;;;;17.30;11.15;;;;;;;9.25;100.00;100902.09;4956476;28;20069;-75
2023/03/21 10:11:31;;;;;;;18.77;11.65;;;;;;;9.16;100.00;100905.69;4967865;28;20049;-75
2023/03/21 10:14:02;;;;;;;20.40;11.80;;;;;;;9.16;100.00;100902.16;4953945;28;20538;-75
2023/03/21 10:16:36;;;;;;;21.67;12.00;;;;;;;9.13;100.00;100899.56;4954179;28;20338;-76
2023/03/21 10:19:13;;;;;;;21.30;12.70;;;;;;;9.21;100.00;100903.00;4955809;28;20035;-76
2023/03/21 10:21:42;;;;;;;20.15;12.52;;;;;;;9.21;100.00;100900.38;4971809;28;20063;-76
2023/03/21 10:24:27;;;;;;;21.00;12.45;;;;;;;9.26;100.00;100886.25;4973610;28;20038;-75
2023/03/21 10:26:55;;;;;;;21.02;11.93;;;;;;;9.34;100.00;100887.94;4970801;28;20078;-75
2023/03/21 10:29:32;;;;;;;21.15;11.32;;;;;;;9.21;100.00;100884.56;4971591;28;20034;-76
2023/03/21 10:31:59;;;;;;;22.60;12.18;;;;;;;9.26;100.00;100880.97;4971208;28;20042;-75
2023/03/21 10:34:56;;;;;;;18.60;11.02;;;;;;;9.32;100.00;100882.66;4969710;28;20068;-75
2023/03/21 10:37:27;;;;;;;19.15;11.60;;;;;;;9.26;100.00;100882.75;4950427;28;20065;-76
2023/03/21 10:39:54;;;;;;;23.67;12.82;;;;;;;9.36;100.00;100886.16;4955991;28;20045;-75
2023/03/21 10:42:28;;;;;;;22.08;13.20;;;;;;;9.36;100.00;100881.75;4955916;28;20061;-75
2023/03/21 10:44:56;;;;;;;23.75;12.55;;;;;;;9.40;100.00;100880.78;4971017;28;20516;-75
2023/03/21 10:47:29;;;;;;;22.38;12.50;;;;;;;9.48;100.00;100885.97;4970076;28;20070;-75
2023/03/21 10:50:04;;;;;;;22.67;12.68;;;;;;;9.41;100.00;100882.53;4970962;28;20063;-75
2023/03/21 10:52:36;;;;;;;22.10;12.65;;;;;;;9.45;100.00;100884.25;4971629;28;20047;-75
2023/03/21 10:55:18;;;;;;;21.30;11.82;;;;;;;9.53;100.00;100865.72;4955447;28;20042;-75
2023/03/21 10:57:46;;;;;;;25.55;14.40;;;;;;;9.61;100.00;100868.25;4972422;28;20087;-75
2023/03/21 11:00:22;;;;;;;23.52;13.88;;;;;;;9.68;100.00;100865.50;4937806;28;20080;-74
2023/03/21 11:02:51;;;;;;;23.75;14.45;;;;;;;9.73;100.00;100857.53;4969205;28;20049;-73
2023/03/21 11:05:34;;;;;;;22.08;13.57;;;;;;;9.73;100.00;100853.13;4954334;28;20126;-75
2023/03/21 11:08:21;;;;;;;19.20;11.75;;;;;;;9.71;100.00;100857.53;4970719;28;20518;-76
2023/03/21 11:11:01;;;;;;;16.30;9.90;;;;;;;9.69;100.00;100858.47;4953703;28;20039;-76
2023/03/21 11:13:40;;;;;;;18.40;11.20;;;;;;;9.75;100.00;100850.44;4963540;28;20066;-76
2023/03/21 11:16:26;;;;;;;18.60;11.30;;;;;;;9.80;100.00;100857.41;4958778;28;20043;-76
2023/03/21 11:18:59;;;;;;;19.98;12.02;;;;;;;9.81;100.00;100858.28;4936216;28;20576;-75
2023/03/21 11:21:27;;;;;;;16.42;10.45;;;;;;;9.77;100.00;100861.88;4937858;28;20039;-76
2023/03/21 11:23:55;;;;;;;21.25;11.02;;;;;;;9.71;100.00;100854.91;4971169;28;20058;-75
2023/03/21 11:26:34;;;;;;;19.77;11.88;;;;;;;9.73;100.00;100855.75;4965854;28;20129;-75
2023/03/21 11:29:16;;;;;;;20.73;12.40;;;;;;;9.73;100.00;100855.75;4951004;28;20043;-76
2023/03/21 11:31:45;;;;;;;20.13;12.23;;;;;;;9.79;100.00;100847.75;4962390;28;20051;-76